createdAt,value
2022-09-16T00:01:13.499Z,81.63
2022-09-16T00:03:41.642Z,81.35
2022-09-16T00:06:20.504Z,81.58
2022-09-16T00:08:49.759Z,81.40
2022-09-16T00:11:19.382Z,81.96
2022-09-16T00:13:47.507Z,81.31
2022-09-16T00:16:20.954Z,81.41
2022-09-16T00:18:49.625Z,81.13
2022-09-16T00:21:18.995Z,81.80
2022-09-16T00:23:47.049Z,81.92
2022-09-16T00:26:15.231Z,82.37
2022-09-16T00:28:43.282Z,82.51
2022-09-16T00:31:11.823Z,82.38
2022-09-16T00:33:39.885Z,82.19
2022-09-16T00:36:11.503Z,81.89
2022-09-16T00:38:41.566Z,80.53
2022-09-16T00:41:15.431Z,78.31
2022-09-16T00:43:53.790Z,79.35
2022-09-16T00:46:30.202Z,79.61
2022-09-16T00:48:59.726Z,79.98
2022-09-16T00:51:28.958Z,80.57
2022-09-16T00:54:04.151Z,80.71
2022-09-16T00:56:39.340Z,80.17
2022-09-16T00:59:13.125Z,80.42
2022-09-16T01:01:43.117Z,79.54
2022-09-16T01:04:19.691Z,79.95
2022-09-16T01:06:48.154Z,80.74
2022-09-16T01:09:20.496Z,80.99
2022-09-16T01:11:48.463Z,81.31
2022-09-16T01:14:35.785Z,80.94
2022-09-16T01:17:23.227Z,80.40
2022-09-16T01:20:29.382Z,80.10
2022-09-16T01:23:22.914Z,80.11
2022-09-16T01:26:20.012Z,77.36
2022-09-16T01:29:48.054Z,78.59
2022-09-16T01:32:29.130Z,79.22
2022-09-16T01:35:11.191Z,79.65
2022-09-16T01:37:56.683Z,80.04
2022-09-16T01:40:35.751Z,80.40
2022-09-16T01:43:18.586Z,79.29
2022-09-16T01:45:56.535Z,78.89
2022-09-16T01:48:38.547Z,79.16
2022-09-16T01:51:16.062Z,79.49
2022-09-16T01:53:55.120Z,79.59
2022-09-16T01:56:32.437Z,79.73
2022-09-16T01:59:09.417Z,79.80
2022-09-16T02:01:47.044Z,79.51
2022-09-16T02:04:24.931Z,79.81
2022-09-16T02:06:57.175Z,80.32
2022-09-16T02:09:33.104Z,78.92
2022-09-16T02:12:07.952Z,78.92
2022-09-16T02:14:42.398Z,78.62
2022-09-16T02:17:13.781Z,78.99
2022-09-16T02:19:49.856Z,79.12
2022-09-16T02:22:24.463Z,79.74
2022-09-16T02:24:53.876Z,80.17
2022-09-16T02:27:24.205Z,80.24
2022-09-16T02:30:01.742Z,79.49
2022-09-16T02:32:34.925Z,78.82
2022-09-16T02:35:07.514Z,78.59
2022-09-16T02:37:43.717Z,79.21
2022-09-16T02:40:18.446Z,79.75
2022-09-16T02:42:46.902Z,80.05
2022-09-16T02:45:15.416Z,79.76
2022-09-16T02:47:55.232Z,78.95
2022-09-16T02:50:32.946Z,78.72
2022-09-16T02:53:09.490Z,78.73
2022-09-16T02:55:50.394Z,78.88
2022-09-16T02:58:18.597Z,78.57
2022-09-16T03:00:50.874Z,78.19
2022-09-16T03:03:19.301Z,78.04
2022-09-16T03:06:21.808Z,77.44
2022-09-16T03:08:52.194Z,77.87
2022-09-16T03:11:33.224Z,77.93
2022-09-16T03:14:32.422Z,78.07
2022-09-16T03:17:20.824Z,77.95
2022-09-16T03:20:05.026Z,77.74
2022-09-16T03:22:49.691Z,78.38
2022-09-16T03:25:40.359Z,78.09
2022-09-16T03:28:16.956Z,78.78
2022-09-16T03:30:55.437Z,78.08
2022-09-16T03:33:33.430Z,78.30
2022-09-16T03:36:06.781Z,78.89
2022-09-16T03:38:40.806Z,79.78
2022-09-16T03:41:11.848Z,79.99
2022-09-16T03:43:40.168Z,79.82
2022-09-16T03:46:12.685Z,78.78
2022-09-16T03:48:40.711Z,79.26
2022-09-16T03:51:08.703Z,78.83
2022-09-16T03:53:38.066Z,79.04
2022-09-16T03:56:06.735Z,78.75
2022-09-16T03:58:34.864Z,78.58
2022-09-16T04:01:03.757Z,78.71
2022-09-16T04:03:33.433Z,78.91
2022-09-16T04:06:01.603Z,79.14
2022-09-16T04:08:29.573Z,79.54
2022-09-16T04:11:01.303Z,79.38
2022-09-16T04:13:31.367Z,79.65
2022-09-16T04:15:59.678Z,79.80
2022-09-16T04:18:27.970Z,80.04
2022-09-16T04:20:58.759Z,80.27
2022-09-16T04:23:27.627Z,79.59
2022-09-16T04:25:58.034Z,79.64
2022-09-16T04:28:27.322Z,79.45
2022-09-16T04:30:55.393Z,79.47
2022-09-16T04:33:23.681Z,79.87
2022-09-16T04:35:51.702Z,79.76
2022-09-16T04:38:19.681Z,79.29
2022-09-16T04:40:47.666Z,78.20
2022-09-16T04:43:16.989Z,77.88
2022-09-16T04:45:44.949Z,77.74
2022-09-16T04:48:12.948Z,77.11
2022-09-16T04:50:40.905Z,77.58
2022-09-16T04:53:08.849Z,77.44
2022-09-16T04:55:37.445Z,77.42
2022-09-16T04:58:05.708Z,77.73
2022-09-16T05:00:35.164Z,76.91
2022-09-16T05:03:03.217Z,77.69
2022-09-16T05:05:31.345Z,77.60
2022-09-16T05:07:59.413Z,77.42
2022-09-16T05:10:28.606Z,77.90
2022-09-16T05:12:56.576Z,77.98
2022-09-16T05:15:24.556Z,78.20
2022-09-16T05:17:53.878Z,77.50
2022-09-16T05:20:21.851Z,77.46
2022-09-16T05:22:51.535Z,77.50
2022-09-16T05:25:19.524Z,77.74
2022-09-16T05:27:47.482Z,75.96
2022-09-16T05:30:17.314Z,76.40
2022-09-16T05:32:45.418Z,76.54
2022-09-16T05:35:14.980Z,75.37
2022-09-16T05:37:42.973Z,75.11
2022-09-16T05:40:11.430Z,75.56
2022-09-16T05:42:39.443Z,73.87
2022-09-16T05:45:09.604Z,73.27
2022-09-16T05:47:37.585Z,73.06
2022-09-16T05:50:06.608Z,73.36
2022-09-16T05:52:36.256Z,73.27
2022-09-16T05:55:04.716Z,71.59
2022-09-16T05:57:32.668Z,71.20
2022-09-16T06:00:01.027Z,69.94
2022-09-16T06:02:29.072Z,69.65
2022-09-16T06:04:57.082Z,68.44
2022-09-16T06:07:25.039Z,68.63
2022-09-16T06:09:54.782Z,68.00
2022-09-16T06:12:22.794Z,68.55
2022-09-16T06:14:50.801Z,68.75
2022-09-16T06:17:18.819Z,67.89
2022-09-16T06:19:46.790Z,68.38
2022-09-16T06:22:14.739Z,68.57
2022-09-16T06:24:42.715Z,67.59
2022-09-16T06:27:12.524Z,67.80
2022-09-16T06:29:40.784Z,67.66
2022-09-16T06:32:08.748Z,67.48
2022-09-16T06:34:36.723Z,67.91
2022-09-16T06:37:05.188Z,67.94
2022-09-16T06:39:33.193Z,67.52
2022-09-16T06:42:01.187Z,67.97
2022-09-16T06:44:30.546Z,67.63
2022-09-16T06:46:58.541Z,66.66
2022-09-16T06:49:26.919Z,64.88
2022-09-16T06:51:54.907Z,64.09
2022-09-16T06:54:22.884Z,64.24
2022-09-16T06:56:50.887Z,63.95
2022-09-16T06:59:18.971Z,63.92
2022-09-16T07:01:48.347Z,63.78
2022-09-16T07:04:16.321Z,63.35
2022-09-16T07:07:07.983Z,63.20
2022-09-16T07:09:34.206Z,63.14
2022-09-16T07:12:03.007Z,62.64
2022-09-16T07:14:32.500Z,62.35
2022-09-16T07:17:02.822Z,62.75
2022-09-16T07:19:30.905Z,62.44
2022-09-16T07:21:58.926Z,62.76
2022-09-16T07:24:27.154Z,63.46
2022-09-16T07:26:55.150Z,62.15
2022-09-16T07:29:23.083Z,61.85
2022-09-16T07:31:51.152Z,62.08
2022-09-16T07:34:21.272Z,61.68
2022-09-16T07:36:50.850Z,60.76
2022-09-16T07:39:21.070Z,60.73
2022-09-16T07:41:49.713Z,60.63
2022-09-16T07:44:21.964Z,60.31
2022-09-16T07:46:51.272Z,59.30
2022-09-16T07:49:21.074Z,59.33
2022-09-16T07:51:49.482Z,59.60
2022-09-16T07:54:19.804Z,59.81
2022-09-16T07:56:47.872Z,61.05
2022-09-16T07:59:19.534Z,60.51
2022-09-16T08:01:49.919Z,60.28
2022-09-16T08:04:20.865Z,60.38
2022-09-16T08:06:49.249Z,60.63
2022-09-16T08:12:07.848Z,58.21
2022-09-16T08:14:36.325Z,58.91
2022-09-16T08:17:04.763Z,60.57
2022-09-16T08:19:34.505Z,59.13
2022-09-16T08:22:02.493Z,59.41
2022-09-16T08:24:30.618Z,58.92
2022-09-16T08:26:58.614Z,57.68
2022-09-16T08:29:27.113Z,58.82
2022-09-16T08:31:55.331Z,59.30
2022-09-16T08:34:23.530Z,59.50
2022-09-16T08:36:53.025Z,59.58
2022-09-16T08:39:21.612Z,57.81
2022-09-16T08:42:32.802Z,56.24
2022-09-16T08:45:20.599Z,56.53
2022-09-16T08:48:09.666Z,56.39
2022-09-16T08:50:43.185Z,57.35
2022-09-16T08:53:20.715Z,56.20
2022-09-16T08:55:52.365Z,56.38
2022-09-16T08:58:23.851Z,55.43
2022-09-16T09:01:02.189Z,54.20
2022-09-16T09:03:38.981Z,52.92
2022-09-16T09:06:24.446Z,53.98
2022-09-16T09:09:09.263Z,53.69
2022-09-16T09:11:51.334Z,54.97
2022-09-16T09:14:41.109Z,55.13
2022-09-16T09:17:25.159Z,54.34
2022-09-16T09:20:08.539Z,55.28
2022-09-16T09:23:00.564Z,56.15
2022-09-16T09:25:44.076Z,55.75
2022-09-16T09:28:38.956Z,56.14
2022-09-16T09:31:25.776Z,59.97
2022-09-16T09:34:06.340Z,60.19
2022-09-16T09:36:52.368Z,59.41
2022-09-16T09:39:44.191Z,59.18
2022-09-16T09:42:22.413Z,57.55
2022-09-16T09:45:01.503Z,55.54
2022-09-16T09:47:38.135Z,55.92
2022-09-16T09:50:20.097Z,56.08
2022-09-16T09:52:58.988Z,56.49
2022-09-16T09:55:33.832Z,56.67
2022-09-16T09:58:24.961Z,56.18
2022-09-16T10:00:56.230Z,56.25
2022-09-16T10:03:27.553Z,55.17
2022-09-16T10:05:55.752Z,54.80
2022-09-16T10:08:30.658Z,54.44
2022-09-16T10:11:01.878Z,53.46
2022-09-16T10:13:32.415Z,53.91
2022-09-16T10:16:15.214Z,52.40
2022-09-16T10:18:45.896Z,52.04
2022-09-16T10:21:17.616Z,51.68
2022-09-16T10:23:56.072Z,51.14
2022-09-16T10:26:27.031Z,51.89
2022-09-16T10:29:00.332Z,51.38
2022-09-16T10:31:40.455Z,50.02
2022-09-16T10:34:24.465Z,49.74
2022-09-16T10:37:04.049Z,49.47
2022-09-16T10:39:34.289Z,48.73
2022-09-16T10:42:06.682Z,48.55
2022-09-16T10:44:38.119Z,48.43
2022-09-16T10:47:19.301Z,47.50
2022-09-16T10:49:52.075Z,47.05
2022-09-16T10:52:24.521Z,47.26
2022-09-16T10:54:54.225Z,47.69
2022-09-16T10:57:29.862Z,46.17
2022-09-16T11:00:02.935Z,46.98
2022-09-16T11:03:23.723Z,45.39
2022-09-16T11:06:10.561Z,46.19
2022-09-16T11:09:02.432Z,46.89
2022-09-16T11:11:58.107Z,46.47
2022-09-16T11:14:46.383Z,46.65
2022-09-16T11:17:36.564Z,47.60
2022-09-16T11:20:53.723Z,47.33
2022-09-16T11:23:40.384Z,46.24
2022-09-16T11:26:18.805Z,45.75
2022-09-16T11:29:27.166Z,46.12
2022-09-16T11:32:14.622Z,46.42
2022-09-16T11:35:10.343Z,46.49
2022-09-16T11:37:50.709Z,46.16
2022-09-16T11:40:35.365Z,46.50
2022-09-16T11:43:39.198Z,46.52
2022-09-16T11:46:20.509Z,46.98
2022-09-16T11:49:06.534Z,47.31
2022-09-16T11:52:01.026Z,47.39
2022-09-16T11:54:59.181Z,47.12
2022-09-16T11:57:33.236Z,46.81
2022-09-16T12:00:06.563Z,47.24
2022-09-16T12:02:41.836Z,47.33
2022-09-16T12:05:20.279Z,47.50
2022-09-16T12:08:03.114Z,47.46
2022-09-16T12:10:42.487Z,48.06
2022-09-16T12:13:16.941Z,48.83
2022-09-16T12:15:51.859Z,49.65
2022-09-16T12:18:27.408Z,47.94
2022-09-16T12:21:09.887Z,48.64
2022-09-16T12:23:46.921Z,50.00
2022-09-16T12:26:22.229Z,49.10
2022-09-16T12:29:00.445Z,48.96
2022-09-16T12:31:36.920Z,47.65
2022-09-16T12:34:14.649Z,48.13
2022-09-16T12:36:48.616Z,47.26
2022-09-16T12:39:17.947Z,47.39
2022-09-16T12:42:11.379Z,47.98
2022-09-16T12:45:12.300Z,49.12
2022-09-16T12:48:12.545Z,48.48
2022-09-16T12:51:09.745Z,48.33
2022-09-16T12:54:23.645Z,48.08
2022-09-16T12:57:21.911Z,48.67
2022-09-16T13:00:11.782Z,47.44
2022-09-16T13:02:46.925Z,47.86
2022-09-16T13:05:26.255Z,46.88
2022-09-16T13:08:01.874Z,45.89
2022-09-16T13:13:35.186Z,47.40
2022-09-16T13:16:07.826Z,47.36
2022-09-16T13:18:45.808Z,46.50
2022-09-16T13:21:27.997Z,46.93
2022-09-16T13:24:07.829Z,46.91
2022-09-16T13:26:45.954Z,46.04
2022-09-16T13:29:44.012Z,45.32
2022-09-16T13:32:38.140Z,46.09
2022-09-16T13:35:24.595Z,45.81
2022-09-16T13:37:55.513Z,45.43
2022-09-16T13:40:27.238Z,45.67
2022-09-16T13:43:15.171Z,46.12
2022-09-16T13:45:45.507Z,45.11
2022-09-16T13:48:19.451Z,44.50
2022-09-16T13:50:53.947Z,43.75
2022-09-16T13:53:29.876Z,44.06
2022-09-16T13:56:08.810Z,44.49
2022-09-16T13:58:52.840Z,43.26
2022-09-16T14:01:37.024Z,43.40
2022-09-16T14:04:41.064Z,44.26
2022-09-16T14:07:25.296Z,44.27
2022-09-16T14:10:01.622Z,44.97
2022-09-16T14:12:48.331Z,45.41
2022-09-16T14:15:19.742Z,45.91
2022-09-16T14:17:53.015Z,45.83
2022-09-16T14:20:24.024Z,47.42
2022-09-16T14:23:02.913Z,48.05
2022-09-16T14:25:34.901Z,46.55
2022-09-16T14:28:20.174Z,45.61
2022-09-16T14:30:56.478Z,44.49
2022-09-16T14:33:31.180Z,44.02
2022-09-16T14:36:01.640Z,43.30
2022-09-16T14:38:46.347Z,43.71
2022-09-16T14:41:25.720Z,44.84
2022-09-16T14:43:59.261Z,45.16
2022-09-16T14:46:28.744Z,44.28
2022-09-16T14:48:57.364Z,44.02
2022-09-16T14:51:28.778Z,44.02
2022-09-16T14:54:15.253Z,44.26
2022-09-16T14:56:43.681Z,45.29
2022-09-16T14:59:15.436Z,45.64
2022-09-16T15:01:45.147Z,45.35
2022-09-16T15:04:20.518Z,45.00
2022-09-16T15:06:55.403Z,45.39
2022-09-16T15:09:33.268Z,45.38
2022-09-16T15:12:02.683Z,45.79
2022-09-16T15:14:31.108Z,46.05
2022-09-16T15:17:04.375Z,45.75
2022-09-16T15:19:38.812Z,46.16
2022-09-16T15:22:14.402Z,45.52
2022-09-16T15:24:43.661Z,47.19
2022-09-16T15:27:12.047Z,47.64
2022-09-16T15:29:53.593Z,47.72
2022-09-16T15:32:28.120Z,48.72
2022-09-16T15:35:20.590Z,47.08
2022-09-16T15:37:49.771Z,46.79
2022-09-16T15:40:36.044Z,46.77
2022-09-16T15:43:16.921Z,46.88
2022-09-16T15:45:58.258Z,46.37
2022-09-16T15:48:34.693Z,46.31
2022-09-16T15:51:10.422Z,46.97
2022-09-16T15:53:46.667Z,45.07
2022-09-16T15:56:33.537Z,43.11
2022-09-16T15:59:06.639Z,42.13
2022-09-16T16:01:52.987Z,40.91
2022-09-16T16:04:30.765Z,41.76
2022-09-16T16:07:02.485Z,41.51
2022-09-16T16:09:41.335Z,42.68
2022-09-16T16:12:14.090Z,42.02
2022-09-16T16:14:43.131Z,42.60
2022-09-16T16:17:15.285Z,42.69
2022-09-16T16:19:47.121Z,43.27
2022-09-16T16:22:16.130Z,43.37
2022-09-16T16:24:45.364Z,44.14
2022-09-16T16:27:13.477Z,43.31
2022-09-16T16:29:41.485Z,43.59
2022-09-16T16:32:11.859Z,44.67
2022-09-16T16:34:42.824Z,44.74
2022-09-16T16:37:33.814Z,45.10
2022-09-16T16:40:04.181Z,45.03
2022-09-16T16:42:32.232Z,45.31
2022-09-16T16:45:00.207Z,45.71
2022-09-16T16:47:28.190Z,45.64
2022-09-16T16:49:56.341Z,46.04
2022-09-16T16:52:25.681Z,46.06
2022-09-16T16:54:53.729Z,46.16
2022-09-16T16:57:21.734Z,47.15
2022-09-16T16:59:49.693Z,47.71
2022-09-16T17:02:17.715Z,47.41
2022-09-16T17:04:45.714Z,47.97
2022-09-16T17:07:29.113Z,47.88
2022-09-16T17:09:58.528Z,48.04
2022-09-16T17:12:27.646Z,47.81
2022-09-16T17:14:55.852Z,47.41
2022-09-16T17:17:27.756Z,46.88
2022-09-16T17:19:59.596Z,47.15
2022-09-16T17:22:27.594Z,46.71
2022-09-16T17:24:55.571Z,46.53
2022-09-16T17:27:26.955Z,46.64
2022-09-16T17:29:54.996Z,46.18
2022-09-16T17:32:23.151Z,46.21
2022-09-16T17:34:51.136Z,46.62
2022-09-16T17:37:19.904Z,47.57
2022-09-16T17:39:49.633Z,46.31
2022-09-16T17:42:18.125Z,46.27
2022-09-16T17:44:47.525Z,46.63
2022-09-16T17:47:15.612Z,46.32
2022-09-16T17:49:43.658Z,47.16
2022-09-16T17:52:11.800Z,47.21
2022-09-16T17:54:40.871Z,46.46
2022-09-16T17:57:08.968Z,46.05
2022-09-16T17:59:37.028Z,46.04
2022-09-16T18:02:07.661Z,46.55
2022-09-16T18:04:35.871Z,45.50
2022-09-16T18:07:04.120Z,45.53
2022-09-16T18:09:32.714Z,45.05
2022-09-16T18:12:00.729Z,45.43
2022-09-16T18:14:28.849Z,45.93
2022-09-16T18:16:56.920Z,46.32
2022-09-16T18:19:26.860Z,46.62
2022-09-16T18:21:55.025Z,47.06
2022-09-16T18:24:23.023Z,47.64
2022-09-16T18:26:51.034Z,48.19
2022-09-16T18:29:19.186Z,48.07
2022-09-16T18:31:49.798Z,48.46
2022-09-16T18:34:18.615Z,49.07
2022-09-16T18:36:48.069Z,49.21
2022-09-16T18:39:18.266Z,49.99
2022-09-16T18:41:47.033Z,50.12
2022-09-16T18:44:17.730Z,50.85
2022-09-16T18:46:45.886Z,50.48
2022-09-16T18:49:16.283Z,51.33
2022-09-16T18:51:51.354Z,51.63
2022-09-16T18:54:24.695Z,51.53
2022-09-16T18:56:55.565Z,51.47
2022-09-16T18:59:28.277Z,51.78
2022-09-16T19:01:59.179Z,52.51
2022-09-16T19:04:30.401Z,52.68
2022-09-16T19:07:07.219Z,53.06
2022-09-16T19:09:38.201Z,52.97
2022-09-16T19:12:07.313Z,53.27
2022-09-16T19:14:35.511Z,52.92
2022-09-16T19:17:03.875Z,53.65
2022-09-16T19:19:32.448Z,53.37
2022-09-16T19:22:05.428Z,53.59
2022-09-16T19:24:34.272Z,53.21
2022-09-16T19:27:02.290Z,53.19
2022-09-16T19:29:30.894Z,53.82
2022-09-16T19:31:59.157Z,53.73
2022-09-16T19:34:27.409Z,52.96
2022-09-16T19:36:57.634Z,52.34
2022-09-16T19:39:28.027Z,52.93
2022-09-16T19:41:56.102Z,53.34
2022-09-16T19:44:24.216Z,53.32
2022-09-16T19:46:52.217Z,53.18
2022-09-16T19:49:22.886Z,54.38
2022-09-16T19:51:52.537Z,53.85
2022-09-16T19:54:23.934Z,53.89
2022-09-16T19:56:53.450Z,54.21
2022-09-16T19:59:22.107Z,55.43
2022-09-16T20:01:50.539Z,55.03
2022-09-16T20:04:20.877Z,54.95
2022-09-16T20:06:49.741Z,55.13
2022-09-16T20:09:17.932Z,55.43
2022-09-16T20:11:48.014Z,55.27
2022-09-16T20:14:20.358Z,54.92
2022-09-16T20:16:50.016Z,55.49
2022-09-16T20:19:21.243Z,55.83
2022-09-16T20:21:49.746Z,56.35
2022-09-16T20:24:20.429Z,56.61
2022-09-16T20:26:48.569Z,57.34
2022-09-16T20:29:18.692Z,57.50
2022-09-16T20:31:48.627Z,56.89
2022-09-16T20:34:17.606Z,57.33
2022-09-16T20:36:46.882Z,57.70
2022-09-16T20:39:16.192Z,58.61
2022-09-16T20:41:49.624Z,59.00
2022-09-16T20:44:19.345Z,57.95
2022-09-16T20:46:48.859Z,57.92
2022-09-16T20:49:22.840Z,58.41
2022-09-16T20:51:51.285Z,59.06
2022-09-16T20:54:19.346Z,58.60
2022-09-16T20:56:49.167Z,58.99
2022-09-16T20:59:20.230Z,58.80
2022-09-16T21:01:49.815Z,58.11
2022-09-16T21:04:20.480Z,57.67
2022-09-16T21:06:48.576Z,57.92
2022-09-16T21:09:18.946Z,57.36
2022-09-16T21:11:47.453Z,58.02
2022-09-16T21:14:21.495Z,57.62
2022-09-16T21:16:50.017Z,57.20
2022-09-16T21:19:18.143Z,57.99
2022-09-16T21:21:47.616Z,57.78
2022-09-16T21:24:16.418Z,58.32
2022-09-16T21:26:45.989Z,58.34
2022-09-16T21:29:20.212Z,58.18
2022-09-16T21:31:50.462Z,58.24
2022-09-16T21:34:21.297Z,58.80
2022-09-16T21:36:50.829Z,59.36
2022-09-16T21:39:21.799Z,59.46
2022-09-16T21:41:50.035Z,59.41
2022-09-16T21:44:19.079Z,59.06
2022-09-16T21:46:49.632Z,59.09
2022-09-16T21:49:22.705Z,58.24
2022-09-16T21:51:52.752Z,58.96
2022-09-16T21:54:21.029Z,58.39
2022-09-16T21:56:51.013Z,58.15
2022-09-16T21:59:20.578Z,58.58
2022-09-16T22:01:51.227Z,57.81
2022-09-16T22:04:22.723Z,57.64
2022-09-16T22:06:52.675Z,57.43
2022-09-16T22:09:20.841Z,57.91
2022-09-16T22:11:49.041Z,57.58
2022-09-16T22:14:17.495Z,57.63
2022-09-16T22:16:45.672Z,57.03
2022-09-16T22:19:18.517Z,57.38
2022-09-16T22:21:49.377Z,57.28
2022-09-16T22:24:20.356Z,57.70
2022-09-16T22:26:49.163Z,58.27
2022-09-16T22:29:17.264Z,58.02
2022-09-16T22:31:45.352Z,58.35
2022-09-16T22:34:14.844Z,59.51
2022-09-16T22:36:42.827Z,59.58
2022-09-16T22:39:15.463Z,59.08
2022-09-16T22:41:44.039Z,58.60
2022-09-16T22:44:12.166Z,59.30
2022-09-16T22:46:44.048Z,58.94
2022-09-16T22:49:14.554Z,59.64
2022-09-16T22:51:43.411Z,59.20
2022-09-16T22:54:14.455Z,58.92
2022-09-16T22:56:44.413Z,59.69
2022-09-16T22:59:19.215Z,60.00
2022-09-16T23:01:48.748Z,59.73
2022-09-16T23:04:18.675Z,60.17
2022-09-16T23:06:46.736Z,60.31
2022-09-16T23:09:15.639Z,60.43
2022-09-16T23:11:43.703Z,60.19
2022-09-16T23:14:19.153Z,60.69
2022-09-16T23:16:47.366Z,60.92
2022-09-16T23:19:17.921Z,61.13
2022-09-16T23:21:46.762Z,61.69
2022-09-16T23:24:18.963Z,61.68
2022-09-16T23:26:48.889Z,61.39
2022-09-16T23:29:19.143Z,61.61
2022-09-16T23:31:47.419Z,61.25
2022-09-16T23:34:20.184Z,61.63
2022-09-16T23:36:49.269Z,61.83
2022-09-16T23:39:19.053Z,61.38
2022-09-16T23:41:49.378Z,61.41
2022-09-16T23:44:18.065Z,61.78
2022-09-16T23:46:46.399Z,61.88
2022-09-16T23:49:16.852Z,62.09
2022-09-16T23:51:46.419Z,62.96
2022-09-16T23:54:15.711Z,63.08
2022-09-16T23:56:44.587Z,63.60
2022-09-16T23:59:12.811Z,63.49
